Terminal Aerodrome Forecast
Issued by NWS Missoula, MT

Home | Current Version | Previous Version | Text Only | Print | Product List | Glossary On
Versions: 1 2 3 4 5 6 7 8 9 10 11 12 13 14 15 16
307
FTUS45 KMSO 132320
TAFMSO
TAF
KMSO 132320Z 1400/1424 29008G16KT P6SM VCSH SCT050 BKN060
     FM140400 VRB05KT 6SM -RASN BKN040 OVC060
     FM141200 VRB05KT 4SM -SN BKN025 OVC050
     FM141400 28006KT 6SM BR VCSH BKN035 OVC050=

USA.gov is the U.S. government's official web portal to all federal, state and local government web resources and services.